Vernant Park, Alabama
Current Conditions -  °F | °C
As of 8:35 AM on Tuesday 21 Oct 2014 (Local Time) from KJKA Reporting Station
Clear Clear  
Wind Chill: 60°   Ceiling: Unl
Heat Index: 60°   Visibility: 10mi
Dew Point: 53°   Wind: 5mph
Humidity: 78%   Direction: 40°NE
Pressure: 30.05"   Gusts: NA
Location:  30.3794°N, 87.7151°W
Report Text: KJKA 211335Z AUTO 04004KT 10SM CLR 15/12 A3005 RMK AO2 T01540115
Loading
Personal Weather Stations






























Interactive Weather Map
Tropical Storm Tracking
New forecast layout! Learn more

10-Day Weather Forecast

Advertisements
Track Severe Weather on mobile